Time;durP1;ratioP1;P1;durP2;ratioP2;P2;SDS_P1;SDS_P2;PMS_P1;PMS_P2;Temp;Humidity;BMP_temperature;BMP_pressure;BME280_temperature;BME280_humidity;BME280_pressure;Samples;Min_cycle;Max_cycle;Signal;HPM_P1;HPM_P2
2020/12/19 00:06:18;;;;;;;20.95;12.38;;;5.80;99.90;;;;;;5026687;23;19922;-96
2020/12/19 00:08:44;;;;;;;19.27;12.45;;;5.90;99.90;;;;;;4975245;28;20015;-96
2020/12/19 00:11:11;;;;;;;21.17;12.70;;;5.90;99.90;;;;;;4978631;28;20111;-96
2020/12/19 00:13:37;;;;;;;21.90;12.48;;;5.80;99.90;;;;;;4938279;29;20035;-96
2020/12/19 00:16:15;;;;;;;18.55;12.23;;;5.80;99.90;;;;;;4903643;29;20031;-96
2020/12/19 00:18:42;;;;;;;21.35;12.63;;;6.00;99.90;;;;;;4951542;29;20042;-96
2020/12/19 00:21:14;;;;;;;23.75;11.80;;;6.00;99.90;;;;;;4936788;29;20378;-96
2020/12/19 00:23:48;;;;;;;18.48;11.32;;;6.00;99.90;;;;;;4956475;28;20035;-96
2020/12/19 00:37:10;;;;;;;21.38;12.43;;;6.00;99.90;;;;;;5671202;23;21745;-96
2020/12/19 00:48:00;;;;;;;22.25;13.02;;;6.40;99.90;;;;;;5014542;28;20050;-96
2020/12/19 00:50:33;;;;;;;19.98;12.52;;;6.40;99.90;;;;;;5000308;28;20044;-96
2020/12/19 00:53:17;;;;;;;22.25;13.40;;;6.30;99.90;;;;;;4997159;28;20027;-96
2020/12/19 00:55:45;;;;;;;21.77;12.70;;;6.40;99.90;;;;;;4993756;28;20053;-96
2020/12/19 01:05:57;;;;;;;26.23;13.52;;;6.50;99.90;;;;;;5086847;23;20046;-95
2020/12/19 01:08:26;;;;;;;21.42;11.52;;;6.50;99.90;;;;;;4998789;28;20035;-96
2020/12/19 01:10:52;;;;;;;15.50;10.45;;;6.50;99.90;;;;;;4957939;28;20024;-95
2020/12/19 01:13:18;;;;;;;17.45;11.13;;;6.50;99.90;;;;;;4919677;29;20056;-94
2020/12/19 01:15:44;;;;;;;17.90;11.00;;;6.40;99.90;;;;;;4904421;29;20032;-94
2020/12/19 01:18:12;;;;;;;18.27;10.90;;;6.40;99.90;;;;;;4904422;29;20045;-94
2020/12/19 01:20:43;;;;;;;21.88;11.20;;;6.50;99.90;;;;;;5004336;23;20112;-90
2020/12/19 01:28:25;;;;;;;16.63;10.30;;;6.20;99.90;;;;;;4774819;23;20054;-96
2020/12/19 01:31:08;;;;;;;17.85;11.18;;;6.20;99.90;;;;;;4976965;28;20031;-96
2020/12/19 01:33:42;;;;;;;16.98;10.80;;;6.20;99.90;;;;;;5179195;23;20075;-90
2020/12/19 01:36:16;;;;;;;17.25;10.88;;;6.10;99.90;;;;;;4937784;28;20048;-96
2020/12/19 01:38:44;;;;;;;21.05;11.70;;;6.10;99.90;;;;;;5369907;23;20039;-96
2020/12/19 01:41:15;;;;;;;17.10;10.60;;;6.20;99.90;;;;;;5126284;23;20047;-96
2020/12/19 01:44:27;;;;;;;;;;;;;;;;;;;;;
2020/12/19 02:05:06;;;;;;;18.55;9.88;;;6.70;99.90;;;;;;5024575;23;20058;-95
2020/12/19 02:07:34;;;;;;;16.38;10.68;;;6.80;99.90;;;;;;4963152;28;20071;-95
2020/12/19 02:10:03;;;;;;;17.25;10.30;;;6.80;99.90;;;;;;4979839;28;20024;-95
2020/12/19 02:12:29;;;;;;;17.73;10.65;;;6.80;99.90;;;;;;4955291;29;20028;-95
2020/12/19 02:15:12;;;;;;;18.02;11.20;;;6.80;99.90;;;;;;4940627;29;20031;-96
2020/12/19 02:23:21;;;;;;;15.48;10.75;;;6.70;99.90;;;;;;5222543;23;20258;-96
2020/12/19 02:28:39;;;;;;;;;;;6.60;99.90;;;;;;5224641;23;20483;-96
2020/12/19 02:31:07;;;;;;;16.35;10.38;;;6.60;99.90;;;;;;4963679;29;19986;-96
2020/12/19 02:44:32;;;;;;;16.73;10.90;;;6.70;99.90;;;;;;5372090;23;20046;-87
2020/12/19 02:47:01;;;;;;;19.25;12.02;;;6.60;99.90;;;;;;4964923;28;20109;-96
2020/12/19 02:49:28;;;;;;;17.20;11.13;;;6.60;99.90;;;;;;4963617;28;20043;-96
2020/12/19 02:51:57;;;;;;;20.58;11.85;;;6.60;99.90;;;;;;4943145;28;20102;-96
2020/12/19 02:57:54;;;;;;;20.20;11.13;;;6.60;99.90;;;;;;4955799;29;20038;-94
2020/12/19 03:00:22;;;;;;;19.60;11.35;;;6.50;99.90;;;;;;4950836;29;20042;-96
2020/12/19 03:02:47;;;;;;;16.33;11.98;;;6.60;99.90;;;;;;4962484;28;20019;-96
2020/12/19 03:07:52;;;;;;;18.65;11.15;;;6.40;99.90;;;;;;4980850;23;20054;-96
2020/12/19 03:10:19;;;;;;;19.15;12.50;;;6.40;99.90;;;;;;4941243;29;20027;-96
2020/12/19 03:12:48;;;;;;;18.38;11.98;;;6.40;99.90;;;;;;4953624;29;20027;-96
2020/12/19 03:15:14;;;;;;;18.85;12.55;;;6.30;99.90;;;;;;4954260;29;20102;-96
2020/12/19 03:17:40;;;;;;;18.20;11.90;;;6.30;99.90;;;;;;4948803;29;20446;-96
2020/12/19 03:20:10;;;;;;;23.27;12.40;;;6.30;99.90;;;;;;4917618;29;20039;-96
2020/12/19 03:22:37;;;;;;;20.55;12.50;;;6.30;99.90;;;;;;4932432;29;20070;-96
2020/12/19 03:25:05;;;;;;;19.98;12.38;;;6.20;99.90;;;;;;4948507;29;20070;-95
2020/12/19 03:27:33;;;;;;;19.25;12.50;;;6.20;99.90;;;;;;4874960;29;20120;-95
2020/12/19 03:30:04;;;;;;;21.25;12.93;;;6.20;99.90;;;;;;4891212;29;20044;-96
2020/12/19 03:32:30;;;;;;;20.73;12.40;;;6.20;99.90;;;;;;4859592;29;20041;-94
2020/12/19 03:35:01;;;;;;;18.65;12.30;;;6.10;99.90;;;;;;4876660;29;20040;-95
2020/12/19 03:37:28;;;;;;;20.15;12.75;;;6.10;99.90;;;;;;4880081;29;20052;-95
2020/12/19 03:39:55;;;;;;;24.30;13.40;;;6.00;99.90;;;;;;4898091;29;20089;-95
2020/12/19 03:42:21;;;;;;;19.38;12.60;;;5.90;99.90;;;;;;4897504;29;20096;-96
2020/12/19 03:44:48;;;;;;;21.80;12.48;;;5.90;99.90;;;;;;4868717;29;20033;-92
2020/12/19 03:47:18;;;;;;;20.33;13.07;;;6.00;99.90;;;;;;4885898;29;20033;-93
2020/12/19 03:49:44;;;;;;;21.83;14.00;;;5.90;99.90;;;;;;4905345;29;20128;-94
2020/12/19 03:52:12;;;;;;;21.77;12.65;;;5.90;99.90;;;;;;4916579;29;20041;-93
2020/12/19 03:54:48;;;;;;;23.05;12.75;;;6.00;99.90;;;;;;4920348;29;20096;-92
2020/12/19 03:57:14;;;;;;;20.00;12.32;;;5.90;99.90;;;;;;4920146;29;20020;-93
2020/12/19 03:59:40;;;;;;;21.73;13.98;;;5.90;99.90;;;;;;4911557;29;20051;-91
2020/12/19 04:02:06;;;;;;;20.58;13.32;;;5.80;99.90;;;;;;4919765;29;20154;-92
2020/12/19 04:04:39;;;;;;;24.33;14.13;;;5.90;99.90;;;;;;4941006;29;20039;-95
2020/12/19 04:07:05;;;;;;;21.77;13.30;;;5.80;99.90;;;;;;4968982;29;20046;-95
2020/12/19 04:09:31;;;;;;;18.17;11.88;;;5.80;99.90;;;;;;4958499;28;20032;-95
2020/12/19 04:11:56;;;;;;;22.73;13.80;;;5.80;99.90;;;;;;4919519;29;20028;-96
2020/12/19 04:16:51;;;;;;;22.77;14.18;;;5.70;99.90;;;;;;4958590;28;20035;-95
2020/12/19 04:19:17;;;;;;;21.35;12.55;;;5.70;99.90;;;;;;4927642;28;20055;-95
2020/12/19 04:27:25;;;;;;;20.70;12.45;;;5.70;99.90;;;;;;5574042;23;20131;-92
2020/12/19 04:30:09;;;;;;;22.27;13.60;;;5.70;99.90;;;;;;5150128;23;20018;-89
2020/12/19 04:46:13;;;;;;;;;;;;;;;;;;;;;
2020/12/19 04:51:25;;;;;;;22.55;13.68;;;5.50;99.90;;;;;;5286178;23;20069;-96
2020/12/19 04:53:54;;;;;;;22.15;14.05;;;5.40;99.90;;;;;;4962044;28;20038;-96
2020/12/19 04:56:22;;;;;;;21.45;14.30;;;5.30;99.90;;;;;;5125161;23;20027;-92
2020/12/19 04:58:52;;;;;;;23.30;14.63;;;5.30;99.90;;;;;;5020404;23;20031;-94
2020/12/19 05:01:18;;;;;;;21.65;15.05;;;5.30;99.90;;;;;;4981265;28;20014;-96
2020/12/19 05:03:48;;;;;;;22.20;15.35;;;5.40;99.90;;;;;;4939108;28;20024;-95
2020/12/19 05:06:30;;;;;;;24.35;14.75;;;5.30;99.90;;;;;;4923023;29;20032;-94
2020/12/19 05:08:58;;;;;;;22.90;13.55;;;5.30;99.90;;;;;;4919186;29;20051;-96
2020/12/19 05:11:25;;;;;;;22.73;14.98;;;5.30;99.90;;;;;;4895571;29;20040;-95
2020/12/19 05:13:53;;;;;;;23.30;14.18;;;5.40;99.90;;;;;;4924997;29;20151;-96
2020/12/19 05:16:20;;;;;;;22.42;14.85;;;5.50;99.90;;;;;;4909441;29;20052;-96
2020/12/19 05:18:46;;;;;;;23.25;13.88;;;5.50;99.90;;;;;;4920432;28;20052;-93
2020/12/19 05:21:14;;;;;;;21.45;14.73;;;5.50;99.90;;;;;;4922238;28;20062;-94
2020/12/19 05:23:44;;;;;;;22.15;13.88;;;5.60;99.90;;;;;;4936725;28;20056;-95
2020/12/19 05:26:19;;;;;;;20.73;14.02;;;5.60;99.90;;;;;;4937887;28;20389;-95
2020/12/19 05:28:53;;;;;;;21.20;14.40;;;5.60;99.90;;;;;;4929305;28;20096;-95
2020/12/19 05:31:19;;;;;;;21.40;13.63;;;5.50;99.90;;;;;;4876663;29;20035;-93
2020/12/19 05:34:18;;;;;;;22.30;13.48;;;5.50;99.90;;;;;;4919839;28;20032;-96
2020/12/19 05:36:56;;;;;;;21.50;12.40;;;5.50;99.90;;;;;;4976997;28;20027;-96
2020/12/19 05:45:32;;;;;;;;;;;;;;;;;;;;;
2020/12/19 05:58:29;;;;;;;19.88;12.30;;;5.80;99.90;;;;;;5018594;23;20045;-96
2020/12/19 06:03:46;;;;;;;21.55;12.93;;;5.80;99.90;;;;;;5383831;23;20047;-92
2020/12/19 06:34:34;;;;;;;21.98;13.63;;;6.30;99.90;;;;;;4960282;28;20051;-95
2020/12/19 06:37:07;;;;;;;22.20;13.57;;;6.30;99.90;;;;;;4950009;29;20041;-96
2020/12/19 06:39:34;;;;;;;19.80;13.35;;;6.30;99.90;;;;;;4934844;29;20053;-95
2020/12/19 06:42:04;;;;;;;20.48;12.75;;;6.30;99.90;;;;;;4958791;28;20027;-95
2020/12/19 06:44:33;;;;;;;20.98;14.68;;;6.20;99.90;;;;;;4962350;28;20123;-96
2020/12/19 06:47:19;;;;;;;19.38;11.90;;;6.30;99.90;;;;;;4942516;29;20032;-96
2020/12/19 06:49:52;;;;;;;22.05;13.35;;;6.40;99.90;;;;;;4955410;29;20165;-96
2020/12/19 06:52:21;;;;;;;18.70;13.07;;;6.40;99.90;;;;;;4935307;29;20055;-96
2020/12/19 06:54:50;;;;;;;20.45;13.35;;;6.30;99.90;;;;;;4933071;29;20043;-96
2020/12/19 06:57:30;;;;;;;20.83;11.85;;;6.30;99.90;;;;;;4968927;29;20023;-96
2020/12/19 07:00:18;;;;;;;23.08;13.00;;;6.40;99.90;;;;;;4949151;29;20138;-92
2020/12/19 07:03:33;;;;;;;18.48;11.63;;;6.40;99.90;;;;;;4952068;29;20055;-96
2020/12/19 07:20:25;;;;;;;21.45;13.18;;;6.40;99.90;;;;;;5117745;23;20070;-94
2020/12/19 07:22:54;;;;;;;19.70;12.75;;;6.40;99.90;;;;;;4994301;28;20025;-95
2020/12/19 07:25:20;;;;;;;21.17;12.88;;;6.40;99.90;;;;;;4981674;28;20035;-95
2020/12/19 07:31:07;;;;;;;19.70;12.50;;;6.40;99.90;;;;;;4995733;28;20017;-95
2020/12/19 07:33:34;;;;;;;20.85;12.75;;;6.40;99.90;;;;;;4978443;28;20030;-96
2020/12/19 07:38:38;;;;;;;18.85;13.90;;;6.60;99.90;;;;;;5043792;23;20050;-95
2020/12/19 07:41:25;;;;;;;17.85;12.40;;;6.60;99.90;;;;;;4974874;28;20040;-94
2020/12/19 07:43:51;;;;;;;19.48;12.65;;;6.70;99.90;;;;;;4973571;28;20019;-95
2020/12/19 07:46:18;;;;;;;23.20;13.60;;;6.70;99.90;;;;;;4956872;28;20088;-96
2020/12/19 07:49:29;;;;;;;19.65;13.45;;;6.80;99.90;;;;;;4954804;28;20054;-96
2020/12/19 08:00:10;;;;;;;19.05;12.13;;;6.70;99.90;;;;;;5130638;23;20050;-94
2020/12/19 08:02:45;;;;;;;25.23;13.00;;;6.70;99.90;;;;;;5018158;28;20049;-94
2020/12/19 08:05:11;;;;;;;17.02;11.52;;;6.60;99.90;;;;;;5002854;28;20098;-95
2020/12/19 08:07:41;;;;;;;18.85;11.00;;;6.70;99.90;;;;;;5047272;23;20057;-90
2020/12/19 08:10:25;;;;;;;19.42;11.95;;;6.70;99.90;;;;;;5217454;23;20049;-90
2020/12/19 08:15:33;;;;;;;18.45;12.35;;;6.70;99.90;;;;;;5115465;23;20038;-92
2020/12/19 08:18:20;;;;;;;20.70;12.45;;;6.70;99.90;;;;;;4966157;28;20041;-94
2020/12/19 08:23:27;;;;;;;22.52;13.45;;;6.80;99.90;;;;;;5340860;23;20054;-91
2020/12/19 08:28:25;;;;;;;18.30;12.90;;;6.80;99.90;;;;;;4959937;29;20034;-95
2020/12/19 08:30:51;;;;;;;18.58;12.05;;;6.80;99.90;;;;;;4943912;28;20085;-95
2020/12/19 08:33:19;;;;;;;19.85;12.93;;;6.90;99.90;;;;;;5122288;23;20038;-95
2020/12/19 08:35:47;;;;;;;17.83;12.57;;;7.00;99.90;;;;;;5049823;23;20085;-95
2020/12/19 08:38:21;;;;;;;18.08;12.10;;;7.00;99.90;;;;;;4992742;28;20045;-95
2020/12/19 08:40:52;;;;;;;23.40;12.35;;;7.10;99.90;;;;;;4975448;28;20027;-95
2020/12/19 08:49:45;;;;;;;19.02;12.32;;;7.20;99.90;;;;;;5079115;23;20054;-96
2020/12/19 08:52:18;;;;;;;18.50;12.40;;;7.30;99.90;;;;;;5483898;23;20051;-93
2020/12/19 08:57:28;;;;;;;18.25;10.75;;;7.40;99.90;;;;;;5034967;23;20074;-96
2020/12/19 09:08:02;;;;;;;16.80;12.07;;;7.50;99.90;;;;;;5206572;23;20018;-96
2020/12/19 09:23:59;;;;;;;18.75;11.68;;;7.70;99.90;;;;;;4976434;28;20031;-92
2020/12/19 09:26:26;;;;;;;15.65;9.95;;;7.80;99.90;;;;;;5292926;23;20058;-86
2020/12/19 09:28:55;;;;;;;14.88;9.98;;;7.80;99.90;;;;;;4939569;28;20020;-96
2020/12/19 09:31:28;;;;;;;16.20;10.82;;;7.90;99.90;;;;;;4923519;28;20081;-92
2020/12/19 09:34:02;;;;;;;14.68;9.90;;;7.90;99.90;;;;;;4893765;28;20028;-93
2020/12/19 09:36:54;;;;;;;16.58;10.05;;;8.00;99.90;;;;;;5162445;23;20047;-86
2020/12/19 09:39:24;;;;;;;16.02;10.10;;;8.10;99.90;;;;;;5359093;23;20033;-88
2020/12/19 09:41:50;;;;;;;13.40;8.95;;;8.10;99.90;;;;;;4926305;28;20095;-93
2020/12/19 09:57:22;;;;;;;14.43;9.10;;;8.30;99.90;;;;;;5012306;23;20090;-87
2020/12/19 09:59:49;;;;;;;14.82;9.55;;;8.50;99.90;;;;;;5088597;23;20050;-89
2020/12/19 10:02:56;;;;;;;14.68;9.45;;;8.50;99.90;;;;;;5089684;23;20040;-87
2020/12/19 10:05:24;;;;;;;14.25;9.63;;;8.50;99.90;;;;;;4881803;29;20045;-89
2020/12/19 10:07:50;;;;;;;12.95;9.20;;;8.60;99.90;;;;;;5039079;23;20039;-88
2020/12/19 10:10:21;;;;;;;14.20;9.43;;;8.60;99.90;;;;;;5018791;23;20039;-91
2020/12/19 10:15:27;;;;;;;16.02;9.60;;;8.60;99.90;;;;;;5043619;23;20043;-92
2020/12/19 10:20:29;;;;;;;13.30;8.77;;;8.80;99.90;;;;;;5016976;23;20044;-92
2020/12/19 10:22:57;;;;;;;10.88;8.40;;;8.80;99.90;;;;;;5030782;23;20069;-89
2020/12/19 10:25:30;;;;;;;17.08;9.07;;;8.90;99.90;;;;;;4969839;28;20111;-91
2020/12/19 10:27:57;;;;;;;13.50;8.43;;;9.00;99.90;;;;;;4962866;29;20043;-92
2020/12/19 10:30:23;;;;;;;14.80;9.15;;;9.00;99.90;;;;;;4902758;29;20058;-90
2020/12/19 10:32:59;;;;;;;14.48;8.73;;;9.10;99.90;;;;;;4953094;29;20057;-92
2020/12/19 10:35:29;;;;;;;15.25;9.45;;;9.10;99.90;;;;;;4970639;28;20055;-91
2020/12/19 10:38:00;;;;;;;12.40;7.72;;;9.30;99.90;;;;;;4910493;29;20383;-91
2020/12/19 10:40:40;;;;;;;12.32;7.93;;;9.30;99.90;;;;;;4897756;29;20459;-90
2020/12/19 10:43:08;;;;;;;12.93;8.23;;;9.50;99.90;;;;;;4914855;29;20088;-91
2020/12/19 10:45:48;;;;;;;11.68;7.40;;;9.50;99.90;;;;;;4919132;29;20041;-92
2020/12/19 10:48:22;;;;;;;12.23;8.38;;;9.50;99.90;;;;;;5215473;23;20051;-94
2020/12/19 10:51:17;;;;;;;10.93;7.68;;;9.70;99.90;;;;;;4961212;28;20041;-96
2020/12/19 10:53:51;;;;;;;11.40;7.32;;;9.70;99.90;;;;;;4940653;29;20036;-92
2020/12/19 10:56:27;;;;;;;9.63;7.05;;;9.80;99.90;;;;;;4910586;29;20032;-93
2020/12/19 10:58:55;;;;;;;11.13;7.15;;;9.80;99.90;;;;;;4956288;29;20047;-95
2020/12/19 11:01:41;;;;;;;11.75;6.57;;;9.90;99.90;;;;;;4947320;29;20032;-94
2020/12/19 11:04:11;;;;;;;9.35;7.00;;;10.10;99.90;;;;;;4952943;29;20039;-95
2020/12/19 11:06:49;;;;;;;11.32;7.82;;;10.00;99.90;;;;;;4961085;28;20023;-96
2020/12/19 11:14:31;;;;;;;11.60;6.47;;;10.30;99.90;;;;;;5496293;23;20035;-91
2020/12/19 11:19:58;;;;;;;11.52;6.70;;;10.50;99.90;;;;;;5105333;23;20059;31
2020/12/19 11:25:23;;;;;;;9.52;6.00;;;10.70;99.90;;;;;;4737061;23;21066;-92
2020/12/19 11:27:52;;;;;;;10.40;5.97;;;10.70;99.90;;;;;;4948801;29;20047;-91
2020/12/19 11:30:24;;;;;;;10.70;6.47;;;10.80;99.90;;;;;;4932468;29;20023;-93
2020/12/19 11:32:54;;;;;;;7.25;5.45;;;11.00;99.90;;;;;;4953264;29;20035;-93
2020/12/19 11:35:22;;;;;;;11.02;5.88;;;11.00;99.90;;;;;;5023122;23;20076;-94
2020/12/19 11:37:48;;;;;;;8.20;5.45;;;11.10;99.90;;;;;;5261698;23;20080;-94
2020/12/19 11:40:14;;;;;;;8.20;6.18;;;11.20;99.90;;;;;;4954710;29;20042;-94
2020/12/19 11:42:41;;;;;;;8.25;5.25;;;11.30;99.90;;;;;;4940331;29;20031;-95
2020/12/19 11:45:08;;;;;;;7.55;4.82;;;11.40;99.90;;;;;;4986761;23;20179;-92
2020/12/19 11:47:35;;;;;;;8.60;5.55;;;11.50;99.90;;;;;;4930191;29;20033;-90
2020/12/19 11:50:05;;;;;;;6.20;4.90;;;11.50;99.90;;;;;;5024675;23;20059;-94
2020/12/19 11:52:42;;;;;;;7.90;5.60;;;11.70;99.90;;;;;;4974312;29;20168;-95
2020/12/19 11:55:11;;;;;;;7.35;5.18;;;11.80;99.90;;;;;;5142334;23;20058;-94
2020/12/19 11:58:21;;;;;;;9.13;5.15;;;11.90;99.90;;;;;;4976629;28;20046;-92
2020/12/19 12:03:51;;;;;;;8.13;4.82;;;11.90;99.90;;;;;;5046518;23;20103;-91
2020/12/19 12:08:53;;;;;;;6.70;4.32;;;12.00;99.90;;;;;;5091318;23;20043;-86
2020/12/19 13:38:31;;;;;;;6.22;4.20;;;11.90;99.90;;;;;;5970282;23;21275;31
2020/12/19 13:46:37;;;;;;;;;;;11.70;99.90;;;;;;5137795;23;20038;-93
2020/12/19 13:49:02;;;;;;;8.30;4.22;;;11.70;99.90;;;;;;5022473;28;19901;-93
2020/12/19 13:51:32;;;;;;;8.20;4.82;;;11.60;99.90;;;;;;5330162;23;20504;-90
2020/12/19 13:54:05;;;;;;;9.00;4.45;;;11.60;99.90;;;;;;5022502;23;20029;-90
2020/12/19 13:56:40;;;;;;;6.05;4.00;;;11.50;99.90;;;;;;5162965;23;20046;-90
2020/12/19 13:59:09;;;;;;;11.00;4.82;;;11.50;99.90;;;;;;5075677;23;20027;-92
2020/12/19 14:01:36;;;;;;;9.00;4.40;;;11.50;99.90;;;;;;5003937;28;20053;-93
2020/12/19 14:04:14;;;;;;;8.75;4.70;;;11.50;99.90;;;;;;4986197;28;20065;-95
2020/12/19 14:09:36;;;;;;;7.03;4.43;;;11.50;99.90;;;;;;5010339;23;20262;-94
2020/12/19 14:12:03;;;;;;;6.38;4.75;;;11.50;99.90;;;;;;4923789;29;20067;-94
2020/12/19 14:17:08;;;;;;;8.32;5.05;;;11.60;99.90;;;;;;4972371;29;20055;-94
2020/12/19 14:19:38;;;;;;;6.95;4.70;;;11.60;99.90;;;;;;4909456;29;20051;-93
2020/12/19 14:22:04;;;;;;;11.77;4.17;;;11.60;99.90;;;;;;4957251;29;20043;-92
2020/12/19 14:24:31;;;;;;;7.50;4.45;;;11.60;99.90;;;;;;4941257;29;20016;-92
2020/12/19 14:26:58;;;;;;;6.57;4.13;;;11.60;99.90;;;;;;4958598;29;20027;-94
2020/12/19 14:29:29;;;;;;;8.63;4.50;;;11.50;99.90;;;;;;4959859;29;20029;-93
2020/12/19 14:31:56;;;;;;;8.95;5.78;;;11.50;99.90;;;;;;4961744;29;20041;-93
2020/12/19 14:34:28;;;;;;;9.18;5.00;;;11.50;99.90;;;;;;4966812;28;20038;-93
2020/12/19 14:36:58;;;;;;;8.45;4.75;;;11.50;99.90;;;;;;5044760;23;20043;-93
2020/12/19 14:39:26;;;;;;;8.63;4.80;;;11.50;99.90;;;;;;4996075;28;20113;-94
2020/12/19 14:41:52;;;;;;;12.50;5.20;;;11.50;99.90;;;;;;4981709;28;20062;-95
2020/12/19 14:44:21;;;;;;;9.05;4.78;;;11.60;99.90;;;;;;4983384;28;20042;-95
2020/12/19 14:46:52;;;;;;;6.88;4.65;;;11.70;99.90;;;;;;4996744;28;20026;-92
2020/12/19 14:49:21;;;;;;;9.73;5.13;;;11.70;99.90;;;;;;4996720;28;20022;-91
2020/12/19 14:51:48;;;;;;;10.43;5.25;;;11.80;99.90;;;;;;4994100;28;20049;-92
2020/12/19 14:54:14;;;;;;;9.32;5.63;;;11.80;99.90;;;;;;5115149;23;20062;-91
2020/12/19 14:56:39;;;;;;;9.27;4.63;;;11.80;99.90;;;;;;4967747;28;20035;-91
2020/12/19 14:59:05;;;;;;;9.20;4.93;;;11.80;99.90;;;;;;4953181;29;20410;-91
2020/12/19 15:01:57;;;;;;;9.50;4.78;;;11.80;99.90;;;;;;4960015;29;20023;-91
2020/12/19 15:04:24;;;;;;;8.38;4.85;;;11.90;99.90;;;;;;4934061;28;20044;-90
2020/12/19 15:06:51;;;;;;;8.00;4.32;;;11.90;99.90;;;;;;4915448;29;20142;-89
2020/12/19 15:09:18;;;;;;;8.35;4.35;;;11.90;99.90;;;;;;4912869;29;20064;-92
2020/12/19 15:11:48;;;;;;;10.90;4.68;;;11.80;99.90;;;;;;4913732;29;20039;-92
2020/12/19 15:14:14;;;;;;;6.60;4.63;;;11.80;99.90;;;;;;4910507;29;20035;-91
2020/12/19 15:16:41;;;;;;;7.55;4.47;;;11.80;99.90;;;;;;4930876;29;20033;-94
2020/12/19 15:19:11;;;;;;;7.65;4.43;;;11.70;99.90;;;;;;4914032;29;20036;-93
2020/12/19 15:21:37;;;;;;;7.83;4.53;;;11.60;99.90;;;;;;4910828;29;20386;-90
2020/12/19 15:24:04;;;;;;;7.00;4.35;;;11.70;99.90;;;;;;4906713;29;20334;-91
2020/12/19 15:26:30;;;;;;;7.15;4.63;;;11.70;99.90;;;;;;4905861;29;20475;-91
2020/12/19 15:28:57;;;;;;;8.77;3.80;;;11.70;99.90;;;;;;4906430;29;20124;-92
2020/12/19 15:31:24;;;;;;;9.55;4.43;;;11.70;99.90;;;;;;4887837;29;20495;-93
2020/12/19 15:33:51;;;;;;;8.13;4.68;;;11.80;99.90;;;;;;4889174;29;20044;-93
2020/12/19 15:36:19;;;;;;;10.32;4.72;;;11.80;99.90;;;;;;4890075;29;20246;-93
2020/12/19 15:38:46;;;;;;;6.68;4.60;;;11.80;99.90;;;;;;4889211;29;20064;-93
2020/12/19 15:41:13;;;;;;;7.63;4.45;;;11.70;99.90;;;;;;4888894;29;20443;-91
2020/12/19 15:43:41;;;;;;;7.18;4.35;;;11.70;99.90;;;;;;4872205;29;20166;-95
2020/12/19 15:46:11;;;;;;;10.48;4.80;;;11.80;99.90;;;;;;4874897;29;20486;-93
2020/12/19 15:48:37;;;;;;;8.20;4.47;;;11.80;99.90;;;;;;4835901;29;20488;-93
2020/12/19 15:51:07;;;;;;;6.88;4.35;;;11.80;99.90;;;;;;4852664;29;20034;-93
2020/12/19 15:53:33;;;;;;;7.82;5.07;;;11.80;99.90;;;;;;4843528;29;20034;-92
2020/12/19 15:56:00;;;;;;;5.72;4.07;;;11.80;99.90;;;;;;4854032;29;20038;-94
2020/12/19 15:58:54;;;;;;;5.85;4.05;;;11.70;99.90;;;;;;4844598;29;20021;-91
2020/12/19 16:01:22;;;;;;;5.13;4.03;;;11.70;99.90;;;;;;4863307;29;20038;-93
2020/12/19 16:03:50;;;;;;;13.90;6.63;;;11.70;99.90;;;;;;4897799;29;20383;-93
2020/12/19 16:06:23;;;;;;;7.25;4.00;;;11.70;99.90;;;;;;4911353;29;20104;-92
2020/12/19 16:08:53;;;;;;;6.20;3.85;;;11.70;99.90;;;;;;4918332;29;20025;-92
2020/12/19 16:11:23;;;;;;;8.65;4.68;;;11.60;99.90;;;;;;4918702;29;20576;-93
2020/12/19 16:13:50;;;;;;;12.37;5.80;;;11.70;99.90;;;;;;4916290;29;20033;-93
2020/12/19 16:16:15;;;;;;;7.38;5.00;;;11.60;99.90;;;;;;4918798;29;20036;-93
2020/12/19 16:18:41;;;;;;;7.15;4.50;;;11.70;99.90;;;;;;4923388;29;20042;-93
2020/12/19 16:21:12;;;;;;;7.80;5.22;;;11.60;99.90;;;;;;4916348;29;20100;-93
2020/12/19 16:23:42;;;;;;;10.73;7.18;;;11.70;99.90;;;;;;4929122;29;20174;-93
2020/12/19 16:26:13;;;;;;;13.55;4.93;;;11.70;99.90;;;;;;4885013;29;20027;-92
2020/12/19 16:28:45;;;;;;;7.70;4.60;;;11.70;99.90;;;;;;4900514;29;20049;-92
2020/12/19 16:31:19;;;;;;;8.52;5.15;;;11.70;99.90;;;;;;4919699;29;20034;-94
2020/12/19 16:33:48;;;;;;;7.15;4.55;;;11.80;99.90;;;;;;4929346;29;20139;-90
2020/12/19 16:36:16;;;;;;;6.25;3.67;;;11.80;99.90;;;;;;4916439;28;20047;-92
2020/12/19 16:38:48;;;;;;;6.47;4.07;;;11.80;99.90;;;;;;4910946;28;20039;-92
2020/12/19 16:41:20;;;;;;;7.22;4.43;;;11.80;99.90;;;;;;4941007;28;20068;-92
2020/12/19 16:43:53;;;;;;;10.00;5.40;;;11.80;99.90;;;;;;4937865;29;20035;-90
2020/12/19 16:46:35;;;;;;;9.02;4.70;;;11.80;99.90;;;;;;4982317;23;20049;-92
2020/12/19 16:49:04;;;;;;;8.75;4.60;;;11.80;99.90;;;;;;4998148;28;20015;-92
2020/12/19 16:51:35;;;;;;;7.47;4.35;;;11.80;99.90;;;;;;4997587;28;20042;-91
2020/12/19 16:54:13;;;;;;;9.32;4.97;;;11.80;99.90;;;;;;4997962;28;20118;-91
2020/12/19 16:56:45;;;;;;;8.50;5.25;;;11.80;99.90;;;;;;4995951;28;20022;-91
2020/12/19 16:59:17;;;;;;;6.00;4.15;;;11.80;99.90;;;;;;4968231;29;20043;-94
2020/12/19 17:01:47;;;;;;;10.35;4.70;;;11.80;99.90;;;;;;4947931;29;20074;-94
2020/12/19 17:04:14;;;;;;;6.88;4.07;;;11.90;99.90;;;;;;4941914;29;20155;-92
2020/12/19 17:06:41;;;;;;;9.98;6.15;;;11.90;99.90;;;;;;4928131;29;20118;-91
2020/12/19 17:09:10;;;;;;;7.97;4.05;;;11.80;99.90;;;;;;4924728;29;20433;-91
2020/12/19 17:11:37;;;;;;;9.00;5.30;;;11.90;99.90;;;;;;4927289;29;20071;-93
2020/12/19 17:14:14;;;;;;;7.32;4.53;;;11.80;99.90;;;;;;4934454;29;20036;-91
2020/12/19 17:16:41;;;;;;;8.95;4.88;;;11.80;99.90;;;;;;4936307;29;20047;-92
2020/12/19 17:19:09;;;;;;;7.75;4.38;;;11.70;99.90;;;;;;4896592;29;20052;-92
2020/12/19 17:21:41;;;;;;;7.53;4.53;;;11.80;99.90;;;;;;4909310;29;20173;-92
2020/12/19 17:24:07;;;;;;;9.95;5.10;;;11.80;99.90;;;;;;4899830;29;20058;-91
2020/12/19 17:26:39;;;;;;;9.65;5.22;;;11.80;99.90;;;;;;4914691;29;20083;-90
2020/12/19 17:29:46;;;;;;;10.88;5.97;;;11.80;99.90;;;;;;4894312;29;20108;-90
2020/12/19 17:32:14;;;;;;;8.60;4.97;;;11.80;99.90;;;;;;4835237;29;20404;-91
2020/12/19 17:34:52;;;;;;;9.50;4.95;;;11.80;99.90;;;;;;4854911;29;20075;-92
2020/12/19 17:37:21;;;;;;;9.18;5.07;;;11.80;99.90;;;;;;4854054;29;20060;-92
2020/12/19 17:39:48;;;;;;;7.97;4.72;;;11.80;99.90;;;;;;4835253;29;20156;-94
2020/12/19 17:42:14;;;;;;;8.77;5.35;;;11.80;99.90;;;;;;4824470;29;20110;-93
2020/12/19 17:47:16;;;;;;;11.38;5.97;;;11.90;99.90;;;;;;4974957;28;20047;-90
2020/12/19 17:50:01;;;;;;;7.18;4.93;;;11.80;99.90;;;;;;4936397;29;20063;-92
2020/12/19 17:52:40;;;;;;;7.22;4.97;;;11.80;99.90;;;;;;4914399;29;20036;-92
2020/12/19 17:55:11;;;;;;;6.78;5.03;;;11.80;99.90;;;;;;4876733;29;20079;-93
2020/12/19 17:58:11;;;;;;;6.85;4.72;;;11.90;99.90;;;;;;4890011;29;20044;-92
2020/12/19 18:00:37;;;;;;;11.65;4.88;;;11.90;99.90;;;;;;4910529;29;20137;-92
2020/12/19 18:03:05;;;;;;;9.88;5.05;;;11.90;99.90;;;;;;4901610;29;20033;-92
2020/12/19 18:05:44;;;;;;;8.32;5.13;;;11.90;99.90;;;;;;4894134;29;20056;-92
2020/12/19 18:08:26;;;;;;;10.52;5.68;;;11.90;99.90;;;;;;5159515;23;20138;-94
2020/12/19 18:10:54;;;;;;;9.05;4.95;;;11.90;99.90;;;;;;4980077;28;20033;-93
2020/12/19 18:13:19;;;;;;;10.07;5.68;;;11.90;99.90;;;;;;5208102;23;20043;-95
2020/12/19 18:15:54;;;;;;;11.23;5.20;;;11.90;99.90;;;;;;4960217;28;20111;-93
2020/12/19 18:18:23;;;;;;;14.02;5.30;;;11.90;99.90;;;;;;4954338;28;20116;-93
2020/12/19 18:26:01;;;;;;;8.30;5.22;;;11.90;99.90;;;;;;5307778;23;20114;-94
2020/12/19 18:28:49;;;;;;;11.45;5.95;;;11.80;99.90;;;;;;4960492;28;20458;-93
2020/12/19 18:31:21;;;;;;;10.85;5.65;;;11.90;99.90;;;;;;5169440;23;20051;-92
2020/12/19 18:36:22;;;;;;;9.30;5.15;;;11.90;99.90;;;;;;5039498;23;20046;-93
2020/12/19 18:41:25;;;;;;;7.10;5.00;;;11.90;99.90;;;;;;4986746;23;20047;-92
2020/12/19 18:43:59;;;;;;;11.40;4.93;;;11.90;99.90;;;;;;5276553;23;20039;-92
2020/12/19 18:49:49;;;;;;;8.00;5.25;;;11.80;99.90;;;;;;4961815;28;20026;-92
2020/12/19 18:52:24;;;;;;;9.38;5.32;;;11.80;99.90;;;;;;4940452;28;20069;-93
2020/12/19 18:54:52;;;;;;;11.95;5.55;;;11.80;99.90;;;;;;4906432;29;20036;-92
2020/12/19 18:57:22;;;;;;;10.48;6.45;;;11.80;99.90;;;;;;4919171;29;20068;-91
2020/12/19 19:00:14;;;;;;;8.77;5.38;;;11.70;99.90;;;;;;4975952;23;20049;-91
2020/12/19 19:03:16;;;;;;;9.20;5.82;;;11.70;99.90;;;;;;5116053;23;20135;-92
2020/12/19 19:15:25;;;;;;;7.93;5.10;;;11.50;99.90;;;;;;4958504;28;20027;-91
2020/12/19 19:18:30;;;;;;;11.13;6.95;;;11.50;99.90;;;;;;4919748;29;20056;-93
2020/12/19 19:21:38;;;;;;;12.77;6.10;;;11.40;99.90;;;;;;4890268;29;20115;-94
2020/12/19 19:24:13;;;;;;;10.95;5.35;;;11.30;99.90;;;;;;4891724;29;20112;-91
2020/12/19 19:26:45;;;;;;;11.70;5.78;;;11.30;99.90;;;;;;4901855;29;20045;-88